Aérodrome :
LOGIN :

S'inscrire | Disclaimer

   EN    FR    IT 

 










Légende :    VFR   VFR Marginal   IFR   IFR Intensif   IFR Très Intensif
Visi : 
Plafond : 
>= 8 km
>= 3000ft
5 à 8 km
1000 à 3000 ft
1500m à 5 km
500 à 1000 ft
800 à 1500m
200 à 500 ft
< 800m
< 200 ft
Symboles :   Orages  Brouillard  Fortes neiges  Fortes précipitations  Vent > 20 kt
SIGMETs :   Divers  Orages  Givrage  Turbulence  Onde Orograph.  Cendres Volcan.







- Altitude de l'aérodrome : 147 ft
- Code IATA : DUS


EDDL - Düsseldorf Int.

DERNIER METAR :
  • 231720Z 17014KT 9999 FEW018 BKN025 09/05 Q1019 NOSIG

METARs EXPIRÉS :
  • 231650Z 17013KT 9999 FEW020 BKN028 09/04 Q1019 NOSIG
  • 231620Z 17016KT 9999 -RA FEW020 BKN032 09/04 Q1019 NOSIG
  • 231550Z 17014KT 9999 -RA FEW020 BKN036 09/04 Q1019 NOSIG
  • 231520Z 18012KT 9999 -RA FEW020 BKN042 09/04 Q1020 NOSIG
  • 231450Z 18012KT 9999 FEW028 BKN048 09/05 Q1020 NOSIG

TAF TAF EDDL
Valide du 23 à 18h jusqu'au 25 à 00h UTC


231700Z 2318/2424 17015KT 9999 BKN025
TEMPO 2318/2408 16015G25KT BKN013
BECMG 2408/2411 18015G25KT
TEMPO 2414/2420 20020G30KT
Pas de NOTAMs connus pour ce terrain.



MET'MAP, la Météo Aéronautique d'un coup d'oeil ! - Copyright ORBIFLY Décembre 2007 - Disclaimer

ORBIFLY MET'MAP TEAM :

Programmation & Développement : Alexandra Zaïnal
Conception & Développement : Baudouin d'Aumeries
Co-Programmation & Développement : Marc-Olivier Méhu
Soutien technique & logistique : Manuel Goepfert

Contact : metmap@orbifly.com




SOURCES & CREDITS :

   NOAA